createdAt,value
2022-09-15T00:03:00.541Z,99921.09
2022-09-15T00:08:02.855Z,99909.78
2022-09-15T00:13:04.189Z,99918.38
2022-09-15T00:18:06.478Z,99910.91
2022-09-15T00:23:08.053Z,99889.78
2022-09-15T00:28:09.539Z,99887.97
2022-09-15T00:33:11.624Z,99901.72
2022-09-15T00:38:13.702Z,99901.59
2022-09-15T00:43:16.014Z,99902.06
2022-09-15T00:48:18.886Z,99907.41
2022-09-15T00:53:20.415Z,99891.63
2022-09-15T00:58:46.866Z,99895.66
2022-09-15T01:03:48.667Z,99882.25
2022-09-15T01:08:53.886Z,99887.53
2022-09-15T01:13:55.456Z,99893.69
2022-09-15T01:19:11.847Z,99891.00
2022-09-15T01:24:43.874Z,99896.66
2022-09-15T01:29:51.960Z,99898.78
2022-09-15T01:35:13.511Z,99889.34
2022-09-15T01:40:15.114Z,99894.63
2022-09-15T01:45:19.701Z,99891.66
2022-09-15T01:50:23.895Z,99894.31
2022-09-15T01:55:41.658Z,99888.00
2022-09-15T02:00:45.490Z,99883.88
2022-09-15T02:05:51.185Z,99891.41
2022-09-15T02:10:58.731Z,99895.53
2022-09-15T02:16:00.376Z,99888.81
2022-09-15T02:21:10.654Z,99885.28
2022-09-15T02:26:14.098Z,99895.66
2022-09-15T02:31:16.599Z,99882.13
2022-09-15T02:36:19.795Z,99884.34
2022-09-15T02:41:21.280Z,99883.66
2022-09-15T02:46:22.919Z,99884.84
2022-09-15T02:51:24.467Z,99885.50
2022-09-15T02:56:25.951Z,99888.44
2022-09-15T03:01:31.760Z,99870.13
2022-09-15T03:06:36.324Z,99878.44
2022-09-15T03:11:37.798Z,99879.41
2022-09-15T03:16:39.319Z,99876.41
2022-09-15T03:21:40.849Z,99867.88
2022-09-15T03:26:42.310Z,99872.75
2022-09-15T03:31:44.136Z,99869.53
2022-09-15T03:36:45.644Z,99879.50
2022-09-15T03:41:47.119Z,99875.06
2022-09-15T03:46:48.611Z,99881.31
2022-09-15T03:51:50.491Z,99887.34
2022-09-15T03:56:52.051Z,99881.88
2022-09-15T04:01:53.584Z,99874.34
2022-09-15T04:06:55.072Z,99877.94
2022-09-15T04:11:56.799Z,99872.06
2022-09-15T04:16:58.277Z,99889.94
2022-09-15T04:22:00.867Z,99880.59
2022-09-15T04:27:02.365Z,99874.59
2022-09-15T04:32:03.849Z,99879.19
2022-09-15T04:37:05.311Z,99896.94
2022-09-15T04:42:06.977Z,99890.66
2022-09-15T04:47:08.453Z,99891.25
2022-09-15T04:52:10.126Z,99884.34
2022-09-15T04:57:11.956Z,99886.56
2022-09-15T05:02:13.445Z,99885.31
2022-09-15T05:07:14.981Z,99897.53
2022-09-15T05:12:17.402Z,99899.03
2022-09-15T05:17:18.734Z,99907.53
2022-09-15T05:22:20.300Z,99910.81
2022-09-15T05:27:21.778Z,99906.41
2022-09-15T05:32:23.245Z,99904.56
2022-09-15T05:37:24.728Z,99902.44
2022-09-15T05:42:26.347Z,99899.59
2022-09-15T05:47:27.816Z,99904.16
2022-09-15T05:52:29.618Z,99892.69
2022-09-15T05:57:31.143Z,99899.34
2022-09-15T06:02:32.668Z,99898.84
2022-09-15T06:07:34.227Z,99894.13
2022-09-15T06:12:36.040Z,99897.47
2022-09-15T06:17:37.512Z,99895.59
2022-09-15T06:22:39.006Z,99896.72
2022-09-15T06:27:41.080Z,99905.19
2022-09-15T06:32:47.419Z,99918.44
2022-09-15T06:37:50.266Z,99926.97
2022-09-15T06:42:55.868Z,99929.28
2022-09-15T06:48:20.260Z,99937.00
2022-09-15T06:53:18.782Z,99936.16
2022-09-15T06:58:20.243Z,99934.63
2022-09-15T07:03:21.963Z,99933.38
2022-09-15T07:08:23.491Z,99932.53
2022-09-15T07:13:25.045Z,99936.28
2022-09-15T07:18:26.692Z,99942.53
2022-09-15T07:23:28.188Z,99943.31
2022-09-15T07:28:29.677Z,99952.69
2022-09-15T07:33:31.482Z,99951.72
2022-09-15T07:38:33.348Z,99957.75
2022-09-15T07:43:34.842Z,99954.94
2022-09-15T07:48:36.319Z,99954.59
2022-09-15T07:53:37.790Z,99956.00
2022-09-15T07:58:39.272Z,99945.53
2022-09-15T08:03:42.713Z,99953.53
2022-09-15T08:08:44.223Z,99965.22
2022-09-15T08:13:46.693Z,99974.16
2022-09-15T08:18:48.260Z,99975.69
2022-09-15T08:23:51.578Z,99984.63
2022-09-15T08:28:53.210Z,99990.34
2022-09-15T08:33:55.071Z,99992.97
2022-09-15T08:38:56.746Z,100000.84
2022-09-15T08:44:22.988Z,99995.00
2022-09-15T08:49:52.599Z,99995.97
2022-09-15T08:54:55.982Z,100004.78
2022-09-15T08:59:59.604Z,100013.38
2022-09-15T09:05:13.121Z,100021.56
2022-09-15T09:10:25.391Z,100023.84
2022-09-15T09:15:31.202Z,100036.91
2022-09-15T09:20:50.757Z,100031.09
2022-09-15T09:25:52.238Z,100038.63
2022-09-15T09:30:53.774Z,100033.59
2022-09-15T09:35:55.481Z,100027.84
2022-09-15T09:41:01.920Z,100021.91
2022-09-15T09:46:14.955Z,100026.84
2022-09-15T09:51:34.541Z,100027.19
2022-09-15T09:56:36.018Z,100031.16
2022-09-15T10:01:37.563Z,100018.97
2022-09-15T10:06:39.093Z,100038.72
2022-09-15T10:11:58.963Z,100021.41
2022-09-15T10:17:14.074Z,100021.72
2022-09-15T10:22:22.232Z,100027.69
2022-09-15T10:27:34.574Z,100033.66
2022-09-15T10:32:36.068Z,100026.91
2022-09-15T10:37:54.555Z,100017.94
2022-09-15T10:43:28.562Z,100014.22
2022-09-15T10:48:32.969Z,100016.84
2022-09-15T10:53:43.673Z,100025.78
2022-09-15T10:59:03.670Z,100027.47
2022-09-15T11:04:24.566Z,100041.03
2022-09-15T11:09:38.679Z,100027.81
2022-09-15T11:14:55.032Z,100041.28
2022-09-15T11:20:10.891Z,100044.88
2022-09-15T11:25:32.655Z,100040.09
2022-09-15T11:30:37.648Z,100045.34
2022-09-15T11:36:00.825Z,100046.28
2022-09-15T11:41:25.873Z,100043.91
2022-09-15T11:47:01.665Z,100046.34
2022-09-15T11:52:08.207Z,100035.72
2022-09-15T11:57:23.466Z,100031.72
2022-09-15T12:02:36.943Z,100044.09
2022-09-15T12:07:59.401Z,100034.91
2022-09-15T12:13:00.921Z,100046.72
2022-09-15T12:18:27.390Z,100054.56
2022-09-15T12:23:41.030Z,100066.88
2022-09-15T12:28:57.697Z,100073.38
2022-09-15T12:34:06.783Z,100067.31
2022-09-15T12:39:28.169Z,100053.81
2022-09-15T12:44:32.223Z,100064.28
2022-09-15T12:49:42.043Z,100073.28
2022-09-15T12:54:43.627Z,100065.53
2022-09-15T12:59:45.120Z,100056.47
2022-09-15T13:04:52.556Z,100068.63
2022-09-15T13:09:57.770Z,100069.78
2022-09-15T13:15:01.326Z,100070.47
2022-09-15T13:20:08.907Z,100069.28
2022-09-15T13:25:14.557Z,100077.72
2022-09-15T13:30:35.995Z,100070.56
2022-09-15T13:35:40.210Z,100062.91
2022-09-15T13:41:15.411Z,100062.50
2022-09-15T13:46:39.742Z,100067.44
2022-09-15T13:51:41.586Z,100066.47
2022-09-15T13:56:43.128Z,100068.50
2022-09-15T14:01:44.878Z,100067.09
2022-09-15T14:06:50.526Z,100070.53
2022-09-15T14:11:53.196Z,100071.09
2022-09-15T14:16:56.178Z,100057.50
2022-09-15T14:21:58.826Z,100067.91
2022-09-15T14:27:02.880Z,100065.66
2022-09-15T14:32:04.487Z,100079.75
2022-09-15T14:37:07.592Z,100084.22
2022-09-15T14:42:41.295Z,100073.84
2022-09-15T14:47:43.400Z,100075.47
2022-09-15T14:52:58.760Z,100080.88
2022-09-15T14:58:20.099Z,100064.06
2022-09-15T15:03:33.482Z,100079.97
2022-09-15T15:08:39.957Z,100065.94
2022-09-15T15:13:42.630Z,100066.84
2022-09-15T15:18:44.375Z,100057.94
2022-09-15T15:23:46.934Z,100063.69
2022-09-15T15:28:48.668Z,100062.41
2022-09-15T15:33:53.560Z,100062.72
2022-09-15T15:38:56.826Z,100072.38
2022-09-15T15:44:07.685Z,100070.06
2022-09-15T15:49:13.297Z,100074.84
2022-09-15T15:54:14.843Z,100066.19
2022-09-15T15:59:16.568Z,100067.75
2022-09-15T16:04:18.031Z,100065.06
2022-09-15T16:09:20.731Z,100071.72
2022-09-15T16:14:22.278Z,100068.78
2022-09-15T16:19:23.816Z,100073.00
2022-09-15T16:24:25.350Z,100063.03
2022-09-15T16:29:31.269Z,100062.25
2022-09-15T16:34:32.785Z,100062.13
2022-09-15T16:39:34.313Z,100064.38
2022-09-15T16:44:35.834Z,100058.09
2022-09-15T16:49:39.332Z,100059.41
2022-09-15T16:54:40.819Z,100058.22
2022-09-15T16:59:42.291Z,100064.31
2022-09-15T17:04:43.776Z,100071.78
2022-09-15T17:09:46.892Z,100066.09
2022-09-15T17:14:48.384Z,100065.31
2022-09-15T17:19:49.918Z,100066.69
2022-09-15T17:24:51.410Z,100072.22
2022-09-15T17:29:52.923Z,100066.53
2022-09-15T17:34:54.526Z,100056.75
2022-09-15T17:39:58.915Z,100071.25
2022-09-15T17:45:01.089Z,100072.22
2022-09-15T17:50:02.606Z,100068.97
2022-09-15T17:55:13.169Z,100066.66
2022-09-15T18:00:15.485Z,100070.75
2022-09-15T18:05:35.777Z,100080.59
2022-09-15T18:10:37.266Z,100075.59
2022-09-15T18:15:38.761Z,100073.78
2022-09-15T18:20:40.299Z,100078.41
2022-09-15T18:25:41.959Z,100076.50
2022-09-15T18:30:45.093Z,100071.59
2022-09-15T18:35:47.867Z,100080.59
2022-09-15T18:40:53.130Z,100100.06
2022-09-15T18:45:58.739Z,100096.00
2022-09-15T18:51:00.273Z,100101.72
2022-09-15T18:56:01.879Z,100082.47
2022-09-15T19:01:04.074Z,100094.69
2022-09-15T19:06:06.253Z,100085.69
2022-09-15T19:11:07.718Z,100088.13
2022-09-15T19:16:09.597Z,100085.94
2022-09-15T19:21:11.630Z,100080.06
2022-09-15T19:26:17.014Z,100082.25
2022-09-15T19:31:18.554Z,100078.81
2022-09-15T19:36:28.773Z,100087.06
2022-09-15T19:41:30.747Z,100091.28
2022-09-15T19:46:32.209Z,100093.97
2022-09-15T19:51:33.707Z,100102.16
2022-09-15T19:56:35.305Z,100088.97
2022-09-15T20:01:37.040Z,100102.75
2022-09-15T20:06:38.765Z,100092.22
2022-09-15T20:11:40.251Z,100090.03
2022-09-15T20:16:41.795Z,100094.06
2022-09-15T20:21:50.247Z,100079.13
2022-09-15T20:26:52.655Z,100102.03
2022-09-15T20:31:54.265Z,100094.69
2022-09-15T20:36:55.739Z,100080.94
2022-09-15T20:41:58.018Z,100097.22
2022-09-15T20:46:59.500Z,100096.28
2022-09-15T20:52:01.010Z,100102.22
2022-09-15T20:57:02.475Z,100104.78
2022-09-15T21:02:05.862Z,100092.72
2022-09-15T21:07:07.406Z,100099.94
2022-09-15T21:12:09.630Z,100103.28
2022-09-15T21:17:11.123Z,100102.00
2022-09-15T21:22:12.582Z,100094.28
2022-09-15T21:27:26.842Z,100096.31
2022-09-15T21:32:29.375Z,100094.69
2022-09-15T21:37:31.929Z,100090.28
2022-09-15T21:42:33.439Z,100088.56
2022-09-15T21:47:34.902Z,100084.22
2022-09-15T21:52:37.082Z,100082.88
2022-09-15T21:57:38.555Z,100082.59
2022-09-15T22:02:40.017Z,100093.72
2022-09-15T22:07:41.494Z,100110.47
2022-09-15T22:12:42.995Z,100101.25
2022-09-15T22:17:44.454Z,100098.47
2022-09-15T22:22:45.955Z,100089.56
2022-09-15T22:27:47.414Z,100094.81
2022-09-15T22:32:48.888Z,100083.19
2022-09-15T22:37:50.363Z,100084.78
2022-09-15T22:42:51.832Z,100082.09
2022-09-15T22:47:53.510Z,100094.47
2022-09-15T22:52:55.774Z,100089.94
2022-09-15T22:57:57.651Z,100091.25
2022-09-15T23:02:59.593Z,100090.13
2022-09-15T23:08:01.098Z,100086.59
2022-09-15T23:13:02.557Z,100087.88
2022-09-15T23:18:04.035Z,100085.78
2022-09-15T23:23:06.224Z,100089.09
2022-09-15T23:28:07.688Z,100078.09
2022-09-15T23:33:09.158Z,100079.44
2022-09-15T23:38:10.633Z,100077.50
2022-09-15T23:43:12.171Z,100078.63
2022-09-15T23:48:13.798Z,100070.91
2022-09-15T23:53:15.272Z,100073.72
2022-09-15T23:58:16.766Z,100064.03
